Time;durP1;ratioP1;P1;durP2;ratioP2;P2;SDS_P1;SDS_P2;PMS_P1;PMS_P2;Temp;Humidity;BMP_temperature;BMP_pressure;BME280_temperature;BME280_humidity;BME280_pressure;Samples;Min_cycle;Max_cycle;Signal;HPM_P1;HPM_P2
2023/03/28 00:01:31;;;;;;;0.88;0.88;;;2.00;99.90;;;;;;6189906;23;20012;-71
2023/03/28 00:03:56;;;;;;;0.70;0.70;;;2.00;99.90;;;;;;6216741;23;20012;-71
2023/03/28 00:06:25;;;;;;;0.90;0.73;;;2.00;99.90;;;;;;6240224;23;20341;-71
2023/03/28 00:08:51;;;;;;;0.88;0.88;;;2.00;99.90;;;;;;6214937;23;20468;-71
2023/03/28 00:11:19;;;;;;;0.77;0.77;;;1.90;99.90;;;;;;6216729;23;20017;-71
2023/03/28 00:13:56;;;;;;;0.70;0.70;;;1.80;99.90;;;;;;6214917;23;20088;-71
2023/03/28 00:16:24;;;;;;;0.90;0.90;;;1.80;99.90;;;;;;6216764;23;20012;-71
2023/03/28 00:18:52;;;;;;;0.80;0.80;;;1.80;99.90;;;;;;6215215;23;20016;-71
2023/03/28 00:21:24;;;;;;;1.10;1.00;;;1.80;99.90;;;;;;6214739;23;20035;-71
2023/03/28 00:23:52;;;;;;;0.80;0.80;;;1.70;99.90;;;;;;6216152;23;20422;-70
2023/03/28 00:26:19;;;;;;;0.80;0.80;;;1.70;99.90;;;;;;6216584;23;20015;-70
2023/03/28 00:28:45;;;;;;;0.90;0.90;;;1.60;99.90;;;;;;6216180;23;20441;-71
2023/03/28 00:31:11;;;;;;;0.80;0.80;;;1.60;99.90;;;;;;6214607;23;20082;-71
2023/03/28 00:33:37;;;;;;;0.95;0.82;;;1.50;99.90;;;;;;6216435;23;20044;-71
2023/03/28 00:36:03;;;;;;;0.82;0.82;;;1.60;99.90;;;;;;6214293;23;20019;-70
2023/03/28 00:38:30;;;;;;;0.82;0.82;;;1.50;99.90;;;;;;6215029;23;20013;-71
2023/03/28 00:40:56;;;;;;;0.68;0.68;;;1.50;99.90;;;;;;6214589;23;20017;-71
2023/03/28 00:43:45;;;;;;;0.88;0.80;;;1.50;99.90;;;;;;6214570;23;20020;-71
2023/03/28 00:46:18;;;;;;;0.80;0.80;;;1.30;99.90;;;;;;6216450;23;20013;-71
2023/03/28 00:48:57;;;;;;;1.25;0.85;;;1.10;99.90;;;;;;6189334;23;20087;-71
2023/03/28 00:51:28;;;;;;;0.93;0.90;;;1.20;99.90;;;;;;6216470;23;20175;-71
2023/03/28 00:53:58;;;;;;;0.73;0.68;;;1.20;99.90;;;;;;6216443;23;20036;-71
2023/03/28 00:56:28;;;;;;;0.88;0.80;;;1.20;99.90;;;;;;6214479;23;20373;-71
2023/03/28 00:58:56;;;;;;;0.93;0.90;;;1.20;99.90;;;;;;6216020;23;20008;-70
2023/03/28 01:01:21;;;;;;;0.98;0.88;;;1.20;99.90;;;;;;6214393;23;20443;-71
2023/03/28 01:04:00;;;;;;;0.80;0.80;;;1.30;99.90;;;;;;6214384;23;20048;-71
2023/03/28 01:06:28;;;;;;;0.60;0.60;;;1.30;99.90;;;;;;6216447;23;20009;-71
2023/03/28 01:08:55;;;;;;;0.85;0.85;;;1.20;99.90;;;;;;6214364;23;20063;-71
2023/03/28 01:11:23;;;;;;;1.48;0.77;;;1.10;99.90;;;;;;6216363;23;20080;-71
2023/03/28 01:13:50;;;;;;;0.80;0.80;;;1.10;99.90;;;;;;6214346;23;20013;-71
2023/03/28 01:16:19;;;;;;;0.80;0.80;;;1.10;99.90;;;;;;6215767;23;20019;-70
2023/03/28 01:18:50;;;;;;;0.80;0.80;;;1.20;99.90;;;;;;6216198;23;20008;-71
2023/03/28 01:21:48;;;;;;;0.93;0.85;;;1.20;99.90;;;;;;6214343;23;20017;-71
2023/03/28 01:24:41;;;;;;;0.80;0.80;;;1.30;99.90;;;;;;6239525;23;20023;-70
2023/03/28 01:27:31;;;;;;;0.90;0.90;;;1.20;99.90;;;;;;6215849;23;20017;-71
2023/03/28 01:30:21;;;;;;;0.63;0.63;;;1.20;99.90;;;;;;6214336;23;20016;-71
2023/03/28 01:33:04;;;;;;;0.85;0.85;;;1.20;99.90;;;;;;6216170;23;20019;-71
2023/03/28 01:35:56;;;;;;;0.90;0.80;;;1.20;99.90;;;;;;6215759;23;20020;-70
2023/03/28 01:38:43;;;;;;;0.90;0.90;;;1.20;99.90;;;;;;6215998;23;20106;-71
2023/03/28 01:41:15;;;;;;;0.95;0.90;;;1.30;99.90;;;;;;6214987;23;20038;-71
2023/03/28 01:44:09;;;;;;;1.52;1.17;;;1.30;99.90;;;;;;6215943;23;20048;-71
2023/03/28 01:46:48;;;;;;;0.90;0.90;;;1.20;99.90;;;;;;6216044;23;20016;-71
2023/03/28 01:49:46;;;;;;;0.70;0.70;;;1.20;99.90;;;;;;6215693;23;20009;-70
2023/03/28 01:52:34;;;;;;;0.88;0.88;;;1.20;99.90;;;;;;6216091;23;20016;-71
2023/03/28 01:55:11;;;;;;;0.98;0.82;;;1.20;99.90;;;;;;6216366;23;20012;-71
2023/03/28 01:57:43;;;;;;;1.02;0.82;;;1.20;99.90;;;;;;6216069;23;20019;-71
2023/03/28 02:00:22;;;;;;;0.73;0.73;;;1.10;99.90;;;;;;6216324;23;20028;-71
2023/03/28 02:02:57;;;;;;;0.80;0.80;;;1.10;99.90;;;;;;6217979;23;20036;-71
2023/03/28 02:05:25;;;;;;;1.00;0.90;;;0.90;99.90;;;;;;6191016;23;20016;-71
2023/03/28 02:07:53;;;;;;;1.02;0.93;;;0.90;99.90;;;;;;6216084;23;20013;-71
2023/03/28 02:10:22;;;;;;;0.85;0.80;;;1.00;99.90;;;;;;6217959;23;20020;-71
2023/03/28 02:12:53;;;;;;;0.73;0.73;;;0.90;99.90;;;;;;6216527;23;20330;-71
2023/03/28 02:15:21;;;;;;;0.95;0.90;;;0.80;99.90;;;;;;6218613;23;20067;-71
2023/03/28 02:17:55;;;;;;;0.60;0.60;;;0.80;99.90;;;;;;6217878;23;20047;-71
2023/03/28 02:20:23;;;;;;;0.75;0.70;;;0.70;99.90;;;;;;6217869;23;20016;-71
2023/03/28 02:22:55;;;;;;;0.88;0.82;;;0.50;99.90;;;;;;6216233;23;20059;-71
2023/03/28 02:25:21;;;;;;;0.98;0.90;;;0.30;99.90;;;;;;6215876;23;20092;-71
2023/03/28 02:27:51;;;;;;;0.80;0.80;;;0.20;99.90;;;;;;6241043;23;20017;-71
2023/03/28 02:30:18;;;;;;;0.98;0.90;;;0.10;99.90;;;;;;6217733;23;20078;-71
2023/03/28 02:32:48;;;;;;;1.15;0.93;;;0.10;99.90;;;;;;6216094;23;20019;-71
2023/03/28 02:35:15;;;;;;;0.70;0.70;;;0.00;99.90;;;;;;6215685;23;20020;-71
2023/03/28 02:37:47;;;;;;;0.90;0.90;;;0.10;99.90;;;;;;6215494;23;20028;-71
2023/03/28 02:40:36;;;;;;;0.90;0.90;;;0.20;99.90;;;;;;6217780;23;20297;-71
2023/03/28 02:43:14;;;;;;;1.95;0.77;;;0.10;99.90;;;;;;6215728;23;20055;-71
2023/03/28 02:45:39;;;;;;;0.80;0.80;;;0.20;99.90;;;;;;6241137;23;20016;-71
2023/03/28 02:48:30;;;;;;;0.80;0.80;;;0.10;99.90;;;;;;6217517;23;20008;-71
2023/03/28 02:51:07;;;;;;;0.70;0.70;;;0.00;99.90;;;;;;6217665;23;20020;-71
2023/03/28 02:53:57;;;;;;;0.77;0.77;;;0.10;99.90;;;;;;6215651;23;20437;-71
2023/03/28 02:56:25;;;;;;;0.90;0.90;;;0.10;99.90;;;;;;6217571;23;20390;-71
2023/03/28 02:58:54;;;;;;;0.75;0.75;;;0.20;99.90;;;;;;6240882;23;20353;-71
2023/03/28 03:01:24;;;;;;;0.73;0.73;;;0.20;99.90;;;;;;6215569;23;20038;-71
2023/03/28 03:03:51;;;;;;;0.90;0.90;;;0.20;99.90;;;;;;6215538;23;20012;-71
2023/03/28 03:06:16;;;;;;;0.93;0.93;;;0.00;99.90;;;;;;6215478;23;20012;-71
2023/03/28 03:08:43;;;;;;;1.05;0.95;;;0.20;99.90;;;;;;6240819;23;20008;-71
2023/03/28 03:11:08;;;;;;;0.98;0.90;;;0.20;99.90;;;;;;6215282;23;20051;-71
2023/03/28 03:13:34;;;;;;;1.15;1.00;;;0.20;99.90;;;;;;6240706;23;20017;-71
2023/03/28 03:16:00;;;;;;;1.17;1.08;;;0.20;99.90;;;;;;6240712;23;20028;-71
2023/03/28 03:18:26;;;;;;;0.90;0.90;;;0.30;99.90;;;;;;6240674;23;20023;-71
2023/03/28 03:20:51;;;;;;;0.90;0.90;;;0.30;99.90;;;;;;6217217;23;20009;-71
2023/03/28 03:23:17;;;;;;;0.93;0.90;;;0.30;99.90;;;;;;6240662;23;20012;-71
2023/03/28 03:25:43;;;;;;;1.27;1.02;;;0.20;99.90;;;;;;6217401;23;20043;-71
2023/03/28 03:28:10;;;;;;;0.82;0.82;;;0.20;99.90;;;;;;6215408;23;20048;-71
2023/03/28 03:30:36;;;;;;;0.90;0.90;;;0.00;99.90;;;;;;6190180;23;20013;-71
2023/03/28 03:33:01;;;;;;;1.00;0.90;;;0.10;99.90;;;;;;6217187;23;20012;-71
2023/03/28 03:35:33;;;;;;;1.00;1.00;;;0.00;99.90;;;;;;6217150;23;20422;-71
2023/03/28 03:37:59;;;;;;;0.80;0.80;;;0.00;99.90;;;;;;6216671;23;20460;-71
2023/03/28 03:40:25;;;;;;;1.10;1.00;;;-0.10;99.90;;;;;;6216790;23;20016;-71
2023/03/28 03:42:51;;;;;;;1.15;1.05;;;0.00;99.90;;;;;;6240350;23;20017;-71
2023/03/28 03:45:17;;;;;;;1.10;1.00;;;0.00;99.90;;;;;;6215506;23;20019;-71
2023/03/28 03:47:43;;;;;;;0.80;0.80;;;-0.20;99.90;;;;;;6240429;23;20038;-71
2023/03/28 03:50:09;;;;;;;0.80;0.80;;;-0.10;99.90;;;;;;6216995;23;20004;-71
2023/03/28 03:52:35;;;;;;;1.15;1.05;;;-0.20;99.90;;;;;;6217060;23;20009;-71
2023/03/28 03:55:00;;;;;;;1.20;1.10;;;-0.20;99.90;;;;;;6216821;23;20035;-71
2023/03/28 03:57:26;;;;;;;1.35;0.80;;;-0.20;99.90;;;;;;6216479;23;20015;-71
2023/03/28 03:59:52;;;;;;;0.98;0.93;;;-0.10;99.90;;;;;;6214964;23;20081;-71
2023/03/28 04:02:18;;;;;;;0.95;0.95;;;-0.20;99.90;;;;;;6216841;23;20017;-71
2023/03/28 04:04:44;;;;;;;0.70;0.70;;;-0.20;99.90;;;;;;6240029;23;20017;-71
2023/03/28 04:07:11;;;;;;;0.80;0.80;;;-0.20;99.90;;;;;;6216805;23;20005;-71
2023/03/28 04:09:37;;;;;;;0.85;0.85;;;-0.30;99.90;;;;;;6216460;23;20350;-71
2023/03/28 04:12:04;;;;;;;1.10;1.10;;;-0.30;99.90;;;;;;6240227;23;20017;-71
2023/03/28 04:14:30;;;;;;;0.80;0.80;;;-0.30;99.90;;;;;;6216753;23;20027;-71
2023/03/28 04:16:56;;;;;;;0.80;0.80;;;-0.40;99.90;;;;;;6189872;23;20012;-71
2023/03/28 04:19:23;;;;;;;0.90;0.90;;;-0.30;99.90;;;;;;6214708;23;20016;-71
2023/03/28 04:21:51;;;;;;;0.82;0.80;;;-0.40;99.90;;;;;;6216596;23;20012;-71
2023/03/28 04:24:19;;;;;;;0.80;0.80;;;-0.50;99.90;;;;;;6214326;23;20087;-70
2023/03/28 04:26:48;;;;;;;0.90;0.90;;;-0.60;99.90;;;;;;6216229;23;20492;-71
2023/03/28 04:29:15;;;;;;;1.13;1.00;;;-0.60;99.90;;;;;;6216596;23;20008;-71
2023/03/28 04:31:48;;;;;;;1.10;0.95;;;-0.60;99.90;;;;;;6216511;23;20008;-70
2023/03/28 04:34:14;;;;;;;1.00;0.90;;;-0.40;99.90;;;;;;6214615;23;20016;-71
2023/03/28 04:36:40;;;;;;;0.80;0.80;;;-0.60;99.90;;;;;;6216360;23;20063;-71
2023/03/28 04:39:06;;;;;;;0.80;0.80;;;-0.50;99.90;;;;;;6217138;23;20017;-70
2023/03/28 04:41:33;;;;;;;0.88;0.88;;;-0.60;99.90;;;;;;6214691;23;20020;-70
2023/03/28 04:43:59;;;;;;;0.80;0.80;;;-0.60;99.90;;;;;;6214425;23;20020;-70
2023/03/28 04:46:27;;;;;;;1.15;0.90;;;-0.60;99.90;;;;;;6216591;23;20004;-71
2023/03/28 04:48:53;;;;;;;1.05;0.95;;;-0.60;99.90;;;;;;6216694;23;20071;-68
2023/03/28 04:51:18;;;;;;;0.90;0.90;;;-0.50;99.90;;;;;;6216534;23;20484;-68
2023/03/28 04:53:44;;;;;;;1.10;1.00;;;-0.60;99.90;;;;;;6214591;23;20043;-71
2023/03/28 04:56:12;;;;;;;1.00;1.00;;;-0.70;99.90;;;;;;6239842;23;20016;-72
2023/03/28 04:58:40;;;;;;;0.80;0.80;;;-0.60;99.90;;;;;;6216414;23;20012;-70
2023/03/28 05:01:09;;;;;;;0.90;0.90;;;-0.70;99.90;;;;;;6214574;23;20013;-70
2023/03/28 05:03:36;;;;;;;0.90;0.90;;;-0.70;99.90;;;;;;6189343;23;20024;-70
2023/03/28 05:06:02;;;;;;;1.00;0.90;;;-0.90;99.90;;;;;;6214412;23;20020;-70
2023/03/28 05:08:28;;;;;;;1.23;1.00;;;-0.80;99.90;;;;;;6216299;23;20005;-70
2023/03/28 05:10:54;;;;;;;1.23;0.90;;;-0.90;99.90;;;;;;6216214;23;20032;-70
2023/03/28 05:13:20;;;;;;;0.88;0.80;;;-0.80;99.90;;;;;;6214437;23;20013;-70
2023/03/28 05:15:47;;;;;;;1.00;0.82;;;-0.80;99.90;;;;;;6216261;23;20013;-70
2023/03/28 05:18:13;;;;;;;1.00;0.90;;;-0.60;99.90;;;;;;6214345;23;20017;-72
2023/03/28 05:20:39;;;;;;;1.25;1.15;;;-0.50;99.90;;;;;;6216230;23;20008;-69
2023/03/28 05:23:05;;;;;;;0.90;0.90;;;-0.50;99.90;;;;;;6189046;23;20012;-70
2023/03/28 05:25:31;;;;;;;0.93;0.90;;;-0.50;99.90;;;;;;6214165;23;20077;-70
2023/03/28 05:27:57;;;;;;;0.85;0.80;;;-0.50;99.90;;;;;;6215766;23;20009;-70
2023/03/28 05:30:22;;;;;;;0.90;0.90;;;-0.40;99.90;;;;;;6239423;23;20020;-70
2023/03/28 05:32:48;;;;;;;1.15;1.00;;;-0.50;99.90;;;;;;6239421;23;20023;-70
2023/03/28 05:35:15;;;;;;;0.90;0.90;;;-0.50;99.90;;;;;;6188621;23;20021;-70
2023/03/28 05:37:41;;;;;;;1.20;1.10;;;-0.40;99.90;;;;;;6215679;23;20066;-69
2023/03/28 05:40:11;;;;;;;1.08;1.00;;;-0.50;99.90;;;;;;6216268;23;20012;-70
2023/03/28 05:42:37;;;;;;;0.80;0.80;;;-0.40;99.90;;;;;;6214117;23;20013;-69
2023/03/28 05:45:05;;;;;;;0.90;0.90;;;-0.30;99.90;;;;;;6216067;23;20008;-70
2023/03/28 05:47:31;;;;;;;1.00;0.90;;;-0.40;99.90;;;;;;6214599;23;20012;-70
2023/03/28 05:49:57;;;;;;;0.90;0.85;;;-0.20;99.90;;;;;;6216048;23;20005;-70
2023/03/28 05:52:22;;;;;;;0.88;0.80;;;-0.20;99.90;;;;;;6214195;23;20015;-70
2023/03/28 05:54:48;;;;;;;0.98;0.90;;;-0.20;99.90;;;;;;6215951;23;20024;-70
2023/03/28 05:57:14;;;;;;;1.00;0.90;;;-0.30;99.90;;;;;;6214057;23;20016;-70
2023/03/28 05:59:41;;;;;;;0.90;0.90;;;-0.10;99.90;;;;;;6188992;23;20096;-70
2023/03/28 06:02:12;;;;;;;0.82;0.82;;;-0.20;99.90;;;;;;6214064;23;20480;-70
2023/03/28 06:04:38;;;;;;;0.90;0.90;;;-0.20;99.90;;;;;;6213955;23;20016;-70
2023/03/28 06:07:05;;;;;;;0.82;0.82;;;0.00;99.90;;;;;;6215555;23;20038;-71
2023/03/28 06:09:31;;;;;;;0.95;0.90;;;0.10;99.90;;;;;;6213971;23;20021;-72
2023/03/28 06:11:57;;;;;;;0.90;0.90;;;0.20;99.90;;;;;;6215909;23;20009;-71
2023/03/28 06:14:23;;;;;;;1.00;1.00;;;0.30;99.90;;;;;;6215816;23;20019;-72
2023/03/28 06:16:48;;;;;;;0.90;0.90;;;0.30;99.90;;;;;;6215927;23;20016;-72
2023/03/28 06:19:14;;;;;;;1.00;0.88;;;0.40;99.90;;;;;;6215565;23;20134;-72
2023/03/28 06:21:40;;;;;;;0.77;0.77;;;0.50;99.90;;;;;;6188984;23;20030;-72
2023/03/28 06:24:06;;;;;;;1.60;1.08;;;0.40;99.90;;;;;;6215789;23;20066;-72
2023/03/28 06:26:31;;;;;;;1.05;0.95;;;0.60;99.90;;;;;;6215936;23;20032;-72
2023/03/28 06:28:57;;;;;;;0.80;0.80;;;0.80;99.90;;;;;;6215546;23;20382;-72
2023/03/28 06:31:22;;;;;;;1.10;1.00;;;1.00;99.90;;;;;;6215437;23;20009;-72
2023/03/28 06:33:48;;;;;;;0.90;0.90;;;1.10;99.90;;;;;;6216103;23;20029;-72
2023/03/28 06:36:14;;;;;;;1.20;1.10;;;1.10;99.90;;;;;;6213780;23;20027;-72
2023/03/28 06:38:39;;;;;;;0.93;0.90;;;1.30;99.90;;;;;;6215490;23;20091;-73
2023/03/28 06:41:05;;;;;;;0.77;0.77;;;1.20;99.90;;;;;;6215739;23;20084;-72
2023/03/28 06:43:31;;;;;;;0.70;0.70;;;1.40;99.90;;;;;;6239137;23;20020;-72
2023/03/28 06:45:57;;;;;;;0.90;0.90;;;1.30;99.90;;;;;;6215921;23;20106;-72
2023/03/28 06:48:29;;;;;;;1.15;1.00;;;1.50;99.90;;;;;;6215656;23;20013;-72
2023/03/28 06:50:55;;;;;;;0.80;0.80;;;1.50;99.90;;;;;;6215717;23;20013;-72
2023/03/28 06:53:21;;;;;;;0.88;0.88;;;1.50;99.90;;;;;;6190627;23;20412;-72
2023/03/28 06:55:49;;;;;;;0.98;0.98;;;1.70;99.90;;;;;;6217580;23;20008;-72
2023/03/28 06:58:15;;;;;;;1.27;1.17;;;1.80;99.90;;;;;;6217591;23;20310;-75
2023/03/28 07:00:41;;;;;;;0.90;0.90;;;1.90;99.90;;;;;;6215667;23;20027;-70
2023/03/28 07:03:07;;;;;;;0.85;0.85;;;1.80;99.90;;;;;;6190543;23;20408;-69
2023/03/28 07:05:37;;;;;;;1.08;0.98;;;2.00;99.90;;;;;;6215526;23;20406;-69
2023/03/28 07:08:03;;;;;;;0.80;0.80;;;2.10;99.90;;;;;;6217588;23;20321;-69
2023/03/28 07:10:29;;;;;;;0.95;0.95;;;2.00;99.90;;;;;;6215473;23;20464;-69
2023/03/28 07:12:55;;;;;;;0.80;0.80;;;2.20;99.90;;;;;;6217405;23;20075;-68
2023/03/28 07:15:20;;;;;;;1.00;1.00;;;2.40;99.90;;;;;;6215371;23;20085;-69
2023/03/28 07:17:47;;;;;;;0.70;0.70;;;2.50;99.90;;;;;;6217249;23;20013;-70
2023/03/28 07:20:12;;;;;;;0.88;0.88;;;2.60;99.90;;;;;;6217189;23;20008;-69
2023/03/28 07:22:39;;;;;;;0.80;0.80;;;2.70;99.90;;;;;;6217195;23;20015;-69
2023/03/28 07:25:06;;;;;;;0.70;0.70;;;2.80;99.90;;;;;;6217234;23;20013;-69
2023/03/28 07:27:32;;;;;;;0.80;0.80;;;2.60;99.90;;;;;;6217200;23;20005;-69
2023/03/28 07:29:58;;;;;;;0.70;0.70;;;2.80;99.90;;;;;;6240645;23;20485;-69
2023/03/28 07:32:24;;;;;;;0.80;0.80;;;2.90;99.90;;;;;;6190133;23;20456;-69
2023/03/28 07:34:49;;;;;;;1.02;0.80;;;3.00;99.90;;;;;;6240574;23;20028;-69
2023/03/28 07:37:15;;;;;;;0.70;0.70;;;3.20;99.90;;;;;;6216683;23;20012;-69
2023/03/28 07:39:42;;;;;;;0.60;0.60;;;3.50;99.90;;;;;;6217369;23;20380;-69
2023/03/28 07:42:12;;;;;;;0.75;0.75;;;3.50;99.90;;;;;;6215283;23;20096;-69
2023/03/28 07:44:38;;;;;;;0.80;0.75;;;3.70;99.90;;;;;;6217018;23;20024;-69
2023/03/28 07:47:05;;;;;;;0.60;0.60;;;3.70;99.90;;;;;;6217078;23;20020;-69
2023/03/28 07:49:31;;;;;;;0.60;0.60;;;4.00;99.90;;;;;;6215213;23;20023;-67
2023/03/28 07:51:57;;;;;;;0.80;0.80;;;4.00;99.90;;;;;;6215090;23;20008;-66
2023/03/28 07:54:23;;;;;;;0.60;0.60;;;4.00;99.90;;;;;;6215136;23;20012;-66
2023/03/28 07:56:50;;;;;;;0.60;0.60;;;4.20;99.90;;;;;;6216772;23;20040;-67
2023/03/28 07:59:16;;;;;;;0.70;0.70;;;4.30;99.90;;;;;;6216366;23;20044;-66
2023/03/28 08:01:42;;;;;;;0.70;0.70;;;4.40;99.90;;;;;;6216895;23;20099;-67
2023/03/28 08:04:10;;;;;;;0.60;0.60;;;4.60;99.90;;;;;;6214826;23;20096;-67
2023/03/28 08:06:37;;;;;;;0.63;0.63;;;4.70;99.90;;;;;;6189947;23;20092;-67
2023/03/28 08:09:05;;;;;;;0.82;0.70;;;4.90;99.90;;;;;;6216490;23;20326;-67
2023/03/28 08:11:31;;;;;;;0.60;0.60;;;5.00;99.90;;;;;;6214933;23;20083;-68
2023/03/28 08:13:57;;;;;;;0.52;0.52;;;5.10;99.90;;;;;;6214820;23;20479;-68
2023/03/28 08:16:23;;;;;;;0.60;0.60;;;5.30;99.90;;;;;;6189750;23;20091;-68
2023/03/28 08:18:49;;;;;;;0.60;0.60;;;5.50;99.90;;;;;;6240118;23;20048;-68
2023/03/28 08:21:14;;;;;;;0.60;0.60;;;5.50;99.90;;;;;;6240112;23;20017;-68
2023/03/28 08:23:40;;;;;;;0.60;0.60;;;5.60;99.90;;;;;;6216209;23;20446;-68
2023/03/28 08:26:06;;;;;;;0.50;0.50;;;5.70;99.90;;;;;;6240089;23;20012;-68
2023/03/28 08:28:33;;;;;;;0.57;0.57;;;5.60;99.90;;;;;;6216612;23;20063;-68
2023/03/28 08:30:59;;;;;;;0.73;0.73;;;5.70;99.90;;;;;;6216705;23;20015;-68
2023/03/28 08:33:25;;;;;;;0.80;0.80;;;5.80;99.90;;;;;;6214761;23;20017;-68
2023/03/28 08:35:52;;;;;;;0.80;0.70;;;5.90;99.90;;;;;;6216379;23;20016;-68
2023/03/28 08:38:18;;;;;;;0.50;0.50;;;5.90;99.90;;;;;;6216719;23;20025;-68
2023/03/28 08:40:55;;;;;;;0.60;0.60;;;5.90;99.90;;;;;;6216235;23;20471;-68
2023/03/28 08:43:31;;;;;;;0.60;0.60;;;5.90;99.90;;;;;;6216544;23;20016;-68
2023/03/28 08:45:58;;;;;;;0.60;0.60;;;6.00;99.90;;;;;;6217191;23;20032;-68
2023/03/28 08:48:43;;;;;;;0.60;0.60;;;6.10;99.90;;;;;;6216370;23;20005;-68
2023/03/28 08:51:35;;;;;;;0.57;0.57;;;6.00;99.90;;;;;;6216871;23;20116;-68
2023/03/28 08:54:14;;;;;;;0.50;0.50;;;6.00;99.90;;;;;;6216068;23;20457;-68
2023/03/28 08:56:45;;;;;;;0.60;0.60;;;5.90;99.90;;;;;;6239862;23;20349;-68
2023/03/28 08:59:14;;;;;;;0.70;0.70;;;5.90;99.90;;;;;;6214611;23;20087;-68
2023/03/28 09:01:40;;;;;;;0.60;0.60;;;6.00;99.90;;;;;;6216457;23;20009;-68
2023/03/28 09:04:06;;;;;;;0.85;0.60;;;5.80;99.90;;;;;;6215956;23;20381;-68
2023/03/28 09:06:39;;;;;;;0.60;0.60;;;5.80;99.90;;;;;;6216293;23;20061;-68
2023/03/28 09:09:43;;;;;;;0.65;0.65;;;5.70;99.90;;;;;;6216337;23;20328;-68
2023/03/28 09:12:21;;;;;;;0.50;0.50;;;5.70;99.90;;;;;;6169626;23;20013;-68
2023/03/28 09:15:04;;;;;;;0.60;0.60;;;5.80;99.90;;;;;;6214414;23;20020;-68
2023/03/28 09:17:44;;;;;;;0.45;0.45;;;5.90;99.90;;;;;;6216220;23;20092;-68
2023/03/28 09:20:22;;;;;;;0.50;0.50;;;5.90;99.90;;;;;;6216230;23;20025;-68
2023/03/28 09:23:06;;;;;;;0.43;0.43;;;6.00;99.90;;;;;;6216196;23;20400;-68
2023/03/28 09:25:47;;;;;;;0.60;0.60;;;6.30;99.90;;;;;;6215775;23;20488;-68
2023/03/28 09:28:32;;;;;;;0.60;0.60;;;6.40;99.90;;;;;;6216199;23;20013;-68
2023/03/28 09:30:59;;;;;;;0.47;0.47;;;6.60;99.90;;;;;;6168657;23;20024;-68
2023/03/28 09:33:33;;;;;;;1.10;0.52;;;6.50;99.90;;;;;;6214157;23;20445;-68
2023/03/28 09:36:00;;;;;;;0.50;0.50;;;6.50;99.90;;;;;;6215528;23;20438;-68
2023/03/28 09:38:58;;;;;;;0.60;0.60;;;6.80;99.90;;;;;;6214314;23;20020;-69
2023/03/28 09:41:51;;;;;;;0.50;0.50;;;6.70;99.80;;;;;;6198385;23;20025;-68
2023/03/28 09:44:20;;;;;;;0.60;0.60;;;6.80;99.90;;;;;;6214305;23;20013;-68
2023/03/28 09:46:47;;;;;;;0.50;0.50;;;6.90;99.90;;;;;;6239477;23;20021;-68
2023/03/28 09:49:22;;;;;;;0.60;0.60;;;6.90;97.90;;;;;;6216064;23;20037;-68
2023/03/28 09:51:51;;;;;;;0.50;0.50;;;6.80;99.90;;;;;;6214249;23;20032;-69
2023/03/28 09:54:27;;;;;;;0.55;0.55;;;6.80;99.90;;;;;;6189158;23;20035;-68
2023/03/28 09:56:59;;;;;;;0.50;0.50;;;6.90;99.90;;;;;;6214611;23;20013;-68
2023/03/28 09:59:31;;;;;;;0.40;0.40;;;6.80;98.30;;;;;;6214171;23;20023;-68
2023/03/28 10:02:01;;;;;;;0.50;0.50;;;6.70;99.90;;;;;;6214216;23;20017;-68
2023/03/28 10:04:26;;;;;;;0.40;0.40;;;6.60;99.90;;;;;;6216001;23;20009;-68
2023/03/28 10:06:53;;;;;;;0.40;0.40;;;6.60;99.90;;;;;;6215628;23;20020;-68
2023/03/28 10:09:25;;;;;;;0.50;0.50;;;6.70;99.90;;;;;;6214202;23;20019;-69
2023/03/28 10:11:53;;;;;;;0.50;0.50;;;6.90;99.90;;;;;;6216091;23;20017;-68
2023/03/28 10:14:40;;;;;;;0.57;0.57;;;7.00;99.90;;;;;;6215960;23;20019;-68
2023/03/28 10:17:14;;;;;;;0.30;0.30;;;7.00;99.90;;;;;;6213998;23;20028;-68
2023/03/28 10:19:45;;;;;;;0.30;0.30;;;7.00;99.90;;;;;;6216004;23;20084;-68
2023/03/28 10:22:24;;;;;;;0.32;0.32;;;7.00;99.90;;;;;;6215696;23;20048;-68
2023/03/28 10:24:50;;;;;;;0.50;0.50;;;6.90;98.70;;;;;;6217475;23;20012;-69
2023/03/28 10:27:16;;;;;;;0.43;0.43;;;7.00;99.90;;;;;;6216321;23;20017;-68
2023/03/28 10:29:44;;;;;;;0.50;0.50;;;6.90;99.00;;;;;;6215887;23;20016;-69
2023/03/28 10:32:22;;;;;;;0.47;0.47;;;7.00;99.90;;;;;;6217759;23;20044;-69
2023/03/28 10:35:15;;;;;;;0.40;0.40;;;7.10;99.90;;;;;;6217510;23;20492;-68
2023/03/28 10:37:41;;;;;;;0.50;0.50;;;7.10;99.20;;;;;;6215693;23;20020;-69
2023/03/28 10:40:19;;;;;;;0.47;0.47;;;7.20;99.50;;;;;;6215807;23;20028;-69
2023/03/28 10:42:48;;;;;;;0.50;0.50;;;7.20;96.20;;;;;;6215704;23;20020;-69
2023/03/28 10:45:32;;;;;;;0.40;0.40;;;7.30;97.30;;;;;;6215715;23;20319;-69
2023/03/28 10:48:00;;;;;;;0.50;0.50;;;7.30;96.20;;;;;;6217666;23;20035;-70
2023/03/28 10:50:33;;;;;;;0.40;0.40;;;7.40;95.90;;;;;;6215624;23;20441;-69
2023/03/28 10:53:34;;;;;;;0.43;0.43;;;7.60;97.10;;;;;;6215874;23;20051;-69
2023/03/28 10:56:07;;;;;;;0.43;0.43;;;7.60;96.50;;;;;;6182466;23;20047;-70
2023/03/28 10:58:38;;;;;;;0.40;0.40;;;7.80;97.40;;;;;;6217223;23;20015;-70
2023/03/28 11:01:23;;;;;;;0.40;0.40;;;7.70;95.60;;;;;;6217208;23;20009;-70
2023/03/28 11:04:42;;;;;;;0.32;0.32;;;7.60;95.60;;;;;;6215710;23;20016;-70
2023/03/28 11:07:50;;;;;;;0.50;0.50;;;7.80;98.60;;;;;;6100922;23;20020;-69
2023/03/28 11:10:29;;;;;;;0.40;0.40;;;7.80;95.40;;;;;;6043165;23;20019;-69
2023/03/28 11:13:21;;;;;;;0.40;0.40;;;7.40;95.00;;;;;;6043181;23;20022;-69
2023/03/28 11:16:01;;;;;;;0.40;0.40;;;7.40;97.20;;;;;;6067479;23;20061;-69
2023/03/28 11:18:30;;;;;;;;;;;7.40;96.20;;;;;;6067679;23;20071;-69
2023/03/28 11:21:32;;;;;;;0.57;0.57;;;7.40;95.90;;;;;;6067968;23;19917;-68
2023/03/28 11:24:33;;;;;;;0.40;0.40;;;7.20;98.00;;;;;;6067092;23;20015;-69
2023/03/28 11:27:13;;;;;;;0.52;0.52;;;7.40;98.80;;;;;;6067158;23;20022;-69
2023/03/28 11:30:01;;;;;;;0.35;0.35;;;7.50;97.80;;;;;;6067668;23;20082;-69
2023/03/28 11:32:39;;;;;;;0.50;0.50;;;7.50;97.10;;;;;;6067052;23;20078;-69
2023/03/28 11:35:25;;;;;;;0.50;0.50;;;7.50;98.50;;;;;;6067145;23;20047;-69
2023/03/28 11:38:01;;;;;;;0.50;0.50;;;7.40;96.80;;;;;;6066796;23;20023;-69
2023/03/28 11:40:35;;;;;;;0.60;0.60;;;7.40;98.30;;;;;;6086682;23;20014;-69
2023/03/28 11:43:04;;;;;;;0.50;0.50;;;7.50;98.30;;;;;;6124917;23;20018;-69
2023/03/28 11:45:40;;;;;;;0.50;0.50;;;7.70;99.30;;;;;;6156404;23;20013;-69
2023/03/28 11:48:19;;;;;;;0.50;0.50;;;7.80;99.90;;;;;;6216827;23;20016;-69
2023/03/28 11:50:51;;;;;;;0.50;0.50;;;7.90;97.50;;;;;;6215234;23;20013;-68
2023/03/28 11:53:52;;;;;;;0.43;0.43;;;8.10;97.60;;;;;;6240269;23;20027;-69
2023/03/28 11:56:42;;;;;;;0.50;0.50;;;8.20;99.20;;;;;;6100246;23;20018;-69
2023/03/28 11:59:29;;;;;;;0.57;0.57;;;8.40;96.40;;;;;;6124822;23;20030;-69
2023/03/28 12:02:20;;;;;;;0.40;0.40;;;8.70;95.30;;;;;;6124774;23;20537;-69
2023/03/28 12:04:53;;;;;;;0.45;0.45;;;8.80;93.60;;;;;;6100335;23;20029;-69
2023/03/28 12:07:37;;;;;;;0.40;0.40;;;8.90;93.20;;;;;;6124784;23;20545;-69
2023/03/28 12:10:17;;;;;;;0.40;0.40;;;8.60;92.60;;;;;;6124750;23;20080;-69
2023/03/28 12:13:10;;;;;;;0.40;0.40;;;8.70;92.80;;;;;;6124704;23;20021;-69
2023/03/28 12:15:41;;;;;;;0.40;0.40;;;8.70;94.70;;;;;;6100233;23;20343;-69
2023/03/28 12:18:31;;;;;;;0.52;0.52;;;8.70;92.80;;;;;;6100327;23;20049;-69
2023/03/28 12:21:23;;;;;;;0.40;0.40;;;8.70;94.30;;;;;;6100116;23;20022;-69
2023/03/28 12:24:12;;;;;;;0.50;0.50;;;9.00;92.10;;;;;;6076002;23;20024;-68
2023/03/28 12:27:00;;;;;;;0.50;0.50;;;9.20;92.30;;;;;;6124618;23;20110;-69
2023/03/28 12:29:36;;;;;;;0.43;0.43;;;9.50;91.90;;;;;;6138174;23;20020;-69
2023/03/28 12:32:20;;;;;;;0.25;0.25;;;9.60;92.10;;;;;;6214765;23;20441;-69
2023/03/28 12:35:05;;;;;;;0.47;0.47;;;9.20;92.90;;;;;;6189701;23;20479;-69
2023/03/28 12:37:42;;;;;;;0.45;0.45;;;8.90;93.90;;;;;;6214647;23;20020;-69
2023/03/28 12:40:42;;;;;;;0.50;0.50;;;8.70;93.30;;;;;;6189771;23;20051;-69
2023/03/28 12:43:11;;;;;;;0.50;0.50;;;8.50;90.90;;;;;;6214490;23;20026;-69
2023/03/28 12:45:41;;;;;;;0.30;0.30;;;8.50;93.50;;;;;;6216492;23;20020;-69
2023/03/28 12:48:16;;;;;;;0.40;0.40;;;8.80;93.60;;;;;;6214660;23;20009;-69
2023/03/28 12:50:51;;;;;;;0.50;0.50;;;8.90;92.50;;;;;;6216427;23;20004;-69
2023/03/28 12:53:17;;;;;;;0.40;0.40;;;8.90;93.20;;;;;;6215010;23;20097;-69
2023/03/28 12:55:47;;;;;;;0.40;0.40;;;9.00;95.10;;;;;;6214527;23;20043;-69
2023/03/28 12:58:28;;;;;;;0.47;0.47;;;9.10;92.40;;;;;;6214516;23;20409;-69
2023/03/28 13:01:18;;;;;;;0.50;0.50;;;9.10;92.00;;;;;;6214496;23;20083;-70
2023/03/28 13:04:12;;;;;;;0.38;0.38;;;9.10;93.60;;;;;;6215888;23;20508;-69
2023/03/28 13:07:02;;;;;;;0.40;0.40;;;9.30;93.60;;;;;;6216431;23;20080;-69
2023/03/28 13:10:13;;;;;;;0.50;0.50;;;9.50;92.80;;;;;;6216365;23;20071;-69
2023/03/28 13:13:07;;;;;;;0.60;0.57;;;9.80;92.10;;;;;;6124157;23;20009;-71
2023/03/28 13:15:47;;;;;;;0.50;0.50;;;9.70;91.50;;;;;;6099695;23;20092;-71
2023/03/28 13:18:19;;;;;;;0.50;0.50;;;10.10;91.40;;;;;;6099955;23;20014;-71
2023/03/28 13:20:46;;;;;;;0.40;0.40;;;9.90;91.30;;;;;;6124130;23;20010;-71
2023/03/28 13:23:16;;;;;;;0.50;0.50;;;9.40;92.60;;;;;;6124105;23;20402;-71